Time;durP1;ratioP1;P1;durP2;ratioP2;P2;SDS_P1;SDS_P2;PMS_P1;PMS_P2;Temp;Humidity;BMP_temperature;BMP_pressure;BME280_temperature;BME280_humidity;BME280_pressure;Samples;Min_cycle;Max_cycle;Signal;HPM_P1;HPM_P2
2021/01/24 00:05:10;;;;;;;5.65;2.00;;;3.50;99.90;;;;;;10232795;28;20039;-52
2021/01/24 00:10:31;;;;;;;7.45;2.00;;;3.40;99.90;;;;;;10235393;28;20047;-52
2021/01/24 00:15:52;;;;;;;6.10;3.00;;;3.40;99.90;;;;;;10232994;28;20157;-52
2021/01/24 00:21:13;;;;;;;2.97;1.10;;;3.30;99.90;;;;;;10237004;28;20049;-52
2021/01/24 00:26:34;;;;;;;3.35;1.67;;;3.40;99.90;;;;;;10233714;28;20047;-52
2021/01/24 00:31:55;;;;;;;5.95;1.92;;;3.30;99.90;;;;;;10234001;28;20127;-52
2021/01/24 00:37:16;;;;;;;3.70;1.90;;;3.30;99.90;;;;;;10233928;28;20493;-52
2021/01/24 00:42:37;;;;;;;9.82;2.10;;;3.30;99.90;;;;;;10232639;28;20147;-52
2021/01/24 00:47:58;;;;;;;5.97;2.00;;;3.30;99.90;;;;;;10233037;28;20042;-52
2021/01/24 00:53:19;;;;;;;3.38;1.23;;;3.20;99.90;;;;;;10232475;28;20043;-51
2021/01/24 00:58:42;;;;;;;3.33;2.17;;;3.30;99.90;;;;;;10233179;28;20343;-52
2021/01/24 01:04:03;;;;;;;2.85;1.38;;;3.20;99.90;;;;;;10235687;28;20134;-51
2021/01/24 01:09:24;;;;;;;2.83;1.00;;;3.20;99.90;;;;;;10231081;28;20106;-52
2021/01/24 01:14:45;;;;;;;6.13;2.00;;;3.20;99.90;;;;;;10233238;28;20509;-51
2021/01/24 01:20:07;;;;;;;6.28;1.98;;;3.20;99.90;;;;;;10235099;28;20038;-51
2021/01/24 01:25:28;;;;;;;7.85;2.53;;;3.20;99.90;;;;;;10232951;28;20051;-52
2021/01/24 01:30:49;;;;;;;2.80;1.30;;;3.20;99.90;;;;;;10216821;28;20195;-52
2021/01/24 01:36:10;;;;;;;3.70;1.40;;;3.20;99.90;;;;;;10230141;28;20530;-52
2021/01/24 01:41:32;;;;;;;3.50;1.27;;;3.10;99.90;;;;;;10233046;28;20059;-52
2021/01/24 01:46:55;;;;;;;2.75;1.58;;;3.10;99.90;;;;;;10234581;28;20055;-52
2021/01/24 01:52:16;;;;;;;4.82;1.02;;;3.10;99.90;;;;;;10228423;28;20053;-52
2021/01/24 01:57:38;;;;;;;4.78;1.55;;;3.00;99.90;;;;;;10229849;28;20050;-51
2021/01/24 02:03:04;;;;;;;2.13;1.10;;;3.00;99.90;;;;;;10230678;28;20061;-52
2021/01/24 02:08:42;;;;;;;6.03;1.30;;;3.10;99.90;;;;;;10230932;28;20051;-52
2021/01/24 02:14:22;;;;;;;4.43;2.15;;;3.10;99.90;;;;;;10233007;28;20114;-52
2021/01/24 02:20:00;;;;;;;4.13;1.20;;;3.10;99.90;;;;;;10238314;28;20039;-52
2021/01/24 02:25:52;;;;;;;5.07;1.85;;;3.10;99.90;;;;;;10229607;28;20039;-52
2021/01/24 02:31:15;;;;;;;4.72;1.35;;;3.10;99.90;;;;;;10230943;28;20047;-52
2021/01/24 02:36:38;;;;;;;5.10;1.00;;;3.00;99.90;;;;;;10231562;28;20051;-51
2021/01/24 02:42:01;;;;;;;2.67;0.73;;;3.00;99.90;;;;;;10234253;28;20285;-52
2021/01/24 02:47:22;;;;;;;3.05;0.90;;;3.00;99.90;;;;;;10230408;28;20082;-52
2021/01/24 02:52:45;;;;;;;2.92;1.05;;;3.00;99.90;;;;;;10229180;28;20467;-51
2021/01/24 02:58:06;;;;;;;2.45;0.98;;;3.00;99.90;;;;;;10228282;28;20073;-52
2021/01/24 03:03:27;;;;;;;2.97;1.05;;;3.00;99.90;;;;;;10228221;28;20039;-52
2021/01/24 03:08:48;;;;;;;1.48;0.85;;;3.00;99.90;;;;;;10231991;28;20054;-52
2021/01/24 03:14:15;;;;;;;3.20;0.57;;;3.00;99.90;;;;;;10243055;28;20589;-52
2021/01/24 03:19:38;;;;;;;2.63;1.23;;;3.00;99.90;;;;;;10227605;28;20062;-52
2021/01/24 03:25:00;;;;;;;3.10;0.68;;;3.10;99.90;;;;;;10237728;28;20039;-52
2021/01/24 03:30:21;;;;;;;3.30;0.55;;;3.10;99.90;;;;;;10240751;28;20054;-52
2021/01/24 03:35:43;;;;;;;3.03;1.20;;;3.10;99.90;;;;;;10234008;28;20046;-52
2021/01/24 03:41:03;;;;;;;2.35;0.82;;;3.10;99.90;;;;;;10236524;28;20075;-52
2021/01/24 03:46:24;;;;;;;2.67;0.70;;;3.10;99.90;;;;;;10237420;28;20070;-52
2021/01/24 03:51:45;;;;;;;2.20;0.88;;;3.20;99.90;;;;;;10235988;28;20109;-52
2021/01/24 03:57:06;;;;;;;1.05;0.50;;;3.10;99.90;;;;;;10237154;28;20181;-52
2021/01/24 04:02:29;;;;;;;3.30;0.65;;;3.10;99.90;;;;;;10237288;28;20049;-52
2021/01/24 04:07:49;;;;;;;0.85;0.43;;;3.20;99.90;;;;;;10232071;28;20529;-52
2021/01/24 04:13:10;;;;;;;0.80;0.55;;;3.20;99.90;;;;;;10232982;28;20142;-51
2021/01/24 04:18:31;;;;;;;0.98;0.30;;;3.10;99.90;;;;;;10234397;28;20405;-52
2021/01/24 04:23:54;;;;;;;1.38;0.52;;;3.00;99.90;;;;;;10237069;28;20418;-51
2021/01/24 04:29:15;;;;;;;1.77;0.47;;;3.10;99.90;;;;;;10232766;28;20043;-52
2021/01/24 04:34:36;;;;;;;5.13;0.63;;;3.00;99.90;;;;;;10232901;28;20039;-52
2021/01/24 04:39:56;;;;;;;0.55;0.20;;;3.00;99.90;;;;;;10236852;28;20050;-52
2021/01/24 04:45:19;;;;;;;0.85;0.22;;;3.10;99.90;;;;;;10231132;28;20070;-52
2021/01/24 04:50:40;;;;;;;0.10;0.00;;;3.10;99.90;;;;;;10232955;28;20045;-52
2021/01/24 04:56:01;;;;;;;1.70;0.63;;;3.20;99.90;;;;;;10230605;28;20036;-51
2021/01/24 05:01:25;;;;;;;0.47;0.20;;;3.20;99.90;;;;;;10234407;28;20081;-52
2021/01/24 05:06:46;;;;;;;0.30;0.10;;;3.20;99.90;;;;;;10233153;28;20039;-52
2021/01/24 05:12:08;;;;;;;0.77;0.17;;;3.20;99.90;;;;;;10233588;28;20399;-52
2021/01/24 05:17:29;;;;;;;0.50;0.10;;;3.20;99.90;;;;;;10232975;28;20089;-52
2021/01/24 05:22:50;;;;;;;0.45;0.17;;;3.10;99.90;;;;;;10232221;28;20068;-52
2021/01/24 05:28:24;;;;;;;0.40;0.13;;;2.90;99.90;;;;;;10234171;28;20061;-51
2021/01/24 05:33:46;;;;;;;0.45;0.28;;;2.90;99.90;;;;;;10229208;28;20236;-52
2021/01/24 05:39:08;;;;;;;0.05;0.00;;;2.70;99.90;;;;;;10230734;28;20429;-52
2021/01/24 05:44:29;;;;;;;0.35;0.13;;;2.60;99.90;;;;;;10232186;28;20581;-52
2021/01/24 05:49:52;;;;;;;0.10;0.08;;;2.60;99.90;;;;;;10231300;28;20039;-52
2021/01/24 05:55:32;;;;;;;0.35;0.00;;;2.60;99.90;;;;;;10225384;28;20178;-51
2021/01/24 06:00:53;;;;;;;0.40;0.15;;;2.50;99.90;;;;;;10228867;28;20047;-52
2021/01/24 06:06:15;;;;;;;0.32;0.08;;;2.20;99.90;;;;;;10227042;28;20112;-52
2021/01/24 06:11:38;;;;;;;0.10;0.00;;;2.30;99.90;;;;;;10232872;28;20522;-52
2021/01/24 06:17:01;;;;;;;0.35;0.10;;;2.20;99.90;;;;;;10233921;28;20035;-52
2021/01/24 06:22:26;;;;;;;0.65;0.10;;;2.10;99.90;;;;;;10219397;28;20043;-52
2021/01/24 06:27:54;;;;;;;0.08;0.03;;;2.00;99.90;;;;;;10230664;28;20070;-52
2021/01/24 06:33:17;;;;;;;0.55;0.10;;;2.00;99.90;;;;;;10230986;28;20039;-52
2021/01/24 06:38:42;;;;;;;1.45;0.13;;;1.90;99.90;;;;;;10233633;28;20098;-51
2021/01/24 06:44:03;;;;;;;0.10;0.00;;;1.90;99.90;;;;;;10234203;28;20460;-52
2021/01/24 06:49:38;;;;;;;1.05;0.05;;;1.90;99.90;;;;;;10238640;28;20043;-51
2021/01/24 06:55:25;;;;;;;0.08;0.00;;;1.80;99.90;;;;;;10241981;28;20518;-52
2021/01/24 07:00:46;;;;;;;0.10;0.00;;;1.90;99.90;;;;;;10241738;28;20038;-51
2021/01/24 07:06:30;;;;;;;0.00;0.00;;;1.80;99.90;;;;;;10236603;28;20061;-52
2021/01/24 07:12:03;;;;;;;1.42;0.32;;;1.80;99.90;;;;;;10239483;28;20098;-51
2021/01/24 07:17:25;;;;;;;2.42;0.50;;;1.70;99.90;;;;;;10236164;28;20066;-52
2021/01/24 07:22:47;;;;;;;0.00;0.00;;;1.70;99.90;;;;;;10239528;28;20037;-51
2021/01/24 07:28:09;;;;;;;0.43;0.15;;;1.70;99.90;;;;;;10235484;28;20151;-52
2021/01/24 07:33:30;;;;;;;1.00;0.20;;;1.70;99.90;;;;;;10237531;28;20038;-52
2021/01/24 07:38:51;;;;;;;0.98;0.10;;;1.60;99.90;;;;;;10238977;28;20493;-51
2021/01/24 07:44:13;;;;;;;0.55;0.20;;;1.70;99.90;;;;;;10236633;28;20085;-52
2021/01/24 07:49:35;;;;;;;1.75;0.30;;;1.60;99.90;;;;;;10236592;28;20414;-51
2021/01/24 07:54:56;;;;;;;0.00;0.00;;;1.50;99.90;;;;;;10233886;28;20070;-51
2021/01/24 08:00:17;;;;;;;0.28;0.22;;;1.50;99.90;;;;;;10237288;28;20035;-51
2021/01/24 08:05:38;;;;;;;0.00;0.00;;;1.50;99.90;;;;;;10237927;28;20792;-51
2021/01/24 08:10:59;;;;;;;0.57;0.28;;;1.50;99.90;;;;;;10236664;28;20456;-52
2021/01/24 08:16:24;;;;;;;0.00;0.00;;;1.50;99.90;;;;;;10241610;28;20058;-51
2021/01/24 08:21:47;;;;;;;0.08;0.00;;;1.50;99.90;;;;;;10238216;28;20039;-51
2021/01/24 08:27:09;;;;;;;1.10;0.13;;;1.50;99.90;;;;;;10238620;28;20495;-51
2021/01/24 08:32:31;;;;;;;0.10;0.00;;;1.50;99.90;;;;;;10234955;28;20357;-51
2021/01/24 08:37:52;;;;;;;0.80;0.08;;;1.70;99.90;;;;;;10244184;28;20035;-51
2021/01/24 08:43:16;;;;;;;4.55;0.40;;;1.80;99.90;;;;;;10238563;28;20463;-52
2021/01/24 08:48:37;;;;;;;0.28;0.10;;;2.00;99.90;;;;;;10237533;28;20383;-52
2021/01/24 08:53:58;;;;;;;0.25;0.22;;;2.10;99.90;;;;;;10236741;28;20424;-52
2021/01/24 08:59:20;;;;;;;1.00;0.20;;;2.30;99.90;;;;;;10239674;28;20148;-52
2021/01/24 09:04:47;;;;;;;0.75;0.20;;;2.60;99.90;;;;;;10235805;28;20143;-51
2021/01/24 09:10:20;;;;;;;0.52;0.10;;;2.70;99.90;;;;;;10235050;28;20117;-52
2021/01/24 09:15:41;;;;;;;1.08;0.55;;;2.60;99.90;;;;;;10240226;28;20047;-52
2021/01/24 09:21:04;;;;;;;0.47;0.22;;;2.70;99.90;;;;;;10234583;28;20036;-52
2021/01/24 09:26:25;;;;;;;0.45;0.20;;;3.10;99.90;;;;;;10236834;28;20573;-52
2021/01/24 09:31:46;;;;;;;0.38;0.13;;;3.50;99.90;;;;;;10236887;28;20403;-51
2021/01/24 09:37:07;;;;;;;0.52;0.22;;;3.90;99.90;;;;;;10236816;28;20394;-52
2021/01/24 09:42:28;;;;;;;5.82;0.60;;;4.00;99.90;;;;;;10235038;28;20039;-51
2021/01/24 09:47:50;;;;;;;0.30;0.10;;;4.20;99.90;;;;;;10235572;28;20050;-52
2021/01/24 09:53:11;;;;;;;0.40;0.20;;;4.40;99.90;;;;;;10235482;28;20085;-52
2021/01/24 09:58:33;;;;;;;0.73;0.50;;;4.80;99.90;;;;;;10232726;28;20035;-51
2021/01/24 10:03:54;;;;;;;0.60;0.10;;;5.10;99.90;;;;;;10233372;28;20045;-52
2021/01/24 10:09:15;;;;;;;2.95;0.40;;;5.20;99.90;;;;;;10233901;28;20054;-52
2021/01/24 10:14:36;;;;;;;0.20;0.10;;;5.10;99.90;;;;;;10235213;28;20105;-51
2021/01/24 10:19:57;;;;;;;0.17;0.03;;;5.20;99.90;;;;;;10235344;28;20103;-51
2021/01/24 10:25:18;;;;;;;0.08;0.00;;;5.20;99.90;;;;;;10241361;28;20050;-52
2021/01/24 10:30:39;;;;;;;4.55;0.30;;;5.50;99.90;;;;;;10241333;28;20067;-52
2021/01/24 10:36:00;;;;;;;1.08;0.57;;;5.60;99.90;;;;;;10233101;28;20062;-52
2021/01/24 10:41:21;;;;;;;1.10;0.50;;;5.40;99.90;;;;;;10244797;28;20118;-51
2021/01/24 10:46:42;;;;;;;0.20;0.10;;;5.00;99.90;;;;;;10243744;28;20110;-52
2021/01/24 10:52:03;;;;;;;2.15;0.30;;;4.80;99.90;;;;;;10239935;28;20297;-52
2021/01/24 10:57:24;;;;;;;1.15;0.30;;;4.70;99.90;;;;;;10242044;28;20175;-52
2021/01/24 11:02:45;;;;;;;1.48;0.47;;;4.80;99.90;;;;;;10243952;28;20121;-52
2021/01/24 11:08:06;;;;;;;1.65;0.45;;;5.00;99.90;;;;;;10243454;28;20054;-52
2021/01/24 11:13:27;;;;;;;3.42;0.50;;;5.60;99.90;;;;;;10240979;28;20036;-51
2021/01/24 11:18:48;;;;;;;2.88;0.75;;;6.50;99.90;;;;;;10238574;28;20574;-52
2021/01/24 11:24:09;;;;;;;2.40;0.40;;;7.60;99.90;;;;;;10239736;28;20242;-51
2021/01/24 11:29:30;;;;;;;1.30;0.55;;;8.10;99.90;;;;;;10240645;28;20380;-52
2021/01/24 11:34:51;;;;;;;1.55;0.40;;;9.10;99.90;;;;;;10245222;28;20058;-52
2021/01/24 11:40:13;;;;;;;5.28;0.82;;;9.60;99.90;;;;;;10238606;28;20039;-52
2021/01/24 11:45:34;;;;;;;1.60;0.57;;;10.30;99.90;;;;;;10236029;28;20089;-52
2021/01/24 11:50:55;;;;;;;1.88;0.88;;;10.50;99.90;;;;;;10239366;28;20426;-51
2021/01/24 11:56:16;;;;;;;1.30;0.65;;;10.70;99.90;;;;;;10238604;28;20430;-52
2021/01/24 12:01:37;;;;;;;4.97;0.85;;;10.00;99.90;;;;;;10240061;28;20047;-52
2021/01/24 12:06:58;;;;;;;1.35;0.70;;;9.60;99.90;;;;;;10239649;28;20043;-52
2021/01/24 12:12:19;;;;;;;2.92;1.10;;;8.70;99.90;;;;;;10234700;28;20039;-51
2021/01/24 12:17:40;;;;;;;2.10;0.60;;;7.70;99.90;;;;;;10237668;28;20078;-52
2021/01/24 12:23:01;;;;;;;5.05;0.60;;;7.40;99.90;;;;;;10235327;28;20118;-51
2021/01/24 12:28:22;;;;;;;2.17;0.50;;;6.90;99.90;;;;;;10234717;28;20047;-52
2021/01/24 12:33:43;;;;;;;2.42;0.63;;;7.40;99.90;;;;;;10232358;28;20506;-51
2021/01/24 12:39:04;;;;;;;6.18;0.68;;;7.80;99.90;;;;;;10238160;28;20367;-51
2021/01/24 12:44:25;;;;;;;1.02;0.40;;;7.20;99.90;;;;;;10237782;28;20042;-52
2021/01/24 12:49:46;;;;;;;1.75;0.40;;;7.00;99.90;;;;;;10235903;28;20085;-52
2021/01/24 12:55:07;;;;;;;2.95;0.47;;;6.80;99.90;;;;;;10234705;28;20410;-51
2021/01/24 13:00:28;;;;;;;2.25;0.35;;;6.80;99.90;;;;;;10235620;28;20046;-51
2021/01/24 13:05:49;;;;;;;1.15;0.52;;;6.60;99.90;;;;;;10238437;28;20046;-51
2021/01/24 13:11:10;;;;;;;3.08;0.90;;;6.50;99.90;;;;;;10237332;28;20779;-52
2021/01/24 13:16:31;;;;;;;0.90;0.30;;;6.40;99.90;;;;;;10215749;28;20102;-50
2021/01/24 13:21:52;;;;;;;1.60;0.47;;;6.40;99.90;;;;;;10235792;28;20565;-51
2021/01/24 13:27:13;;;;;;;0.65;0.40;;;6.30;99.90;;;;;;10233579;28;20047;-50
2021/01/24 13:32:34;;;;;;;2.47;0.60;;;6.00;99.90;;;;;;10230225;28;20038;-54
2021/01/24 13:37:55;;;;;;;1.50;0.43;;;5.60;99.90;;;;;;10236034;28;20142;-53
2021/01/24 13:43:16;;;;;;;9.15;0.45;;;5.60;99.90;;;;;;10233373;28;20031;-54
2021/01/24 13:48:37;;;;;;;1.30;0.50;;;5.60;99.90;;;;;;10234274;28;20058;-53
2021/01/24 13:53:58;;;;;;;6.80;0.60;;;5.40;99.90;;;;;;10233935;28;20087;-53
2021/01/24 13:59:19;;;;;;;2.45;0.50;;;5.50;99.90;;;;;;10235826;28;20086;-53
2021/01/24 14:04:43;;;;;;;1.67;0.40;;;5.40;99.90;;;;;;10236654;28;20089;-53
2021/01/24 14:10:05;;;;;;;2.28;0.40;;;5.30;99.90;;;;;;10234071;28;20511;-53
2021/01/24 14:15:26;;;;;;;0.70;0.32;;;5.30;99.90;;;;;;10234268;28;20174;-53
2021/01/24 14:20:47;;;;;;;1.33;0.55;;;5.30;99.90;;;;;;10236342;28;20036;-53
2021/01/24 14:26:08;;;;;;;0.52;0.30;;;5.20;99.90;;;;;;10230695;28;20062;-53
2021/01/24 14:31:30;;;;;;;2.17;0.30;;;5.10;99.90;;;;;;10235502;28;20046;-53
2021/01/24 14:36:51;;;;;;;1.92;0.52;;;5.00;99.90;;;;;;10231642;28;20039;-53
2021/01/24 14:42:12;;;;;;;3.72;1.33;;;5.00;99.90;;;;;;10230551;28;20162;-53
2021/01/24 14:47:33;;;;;;;3.88;0.93;;;5.00;99.90;;;;;;10232371;28;20047;-53
2021/01/24 14:52:54;;;;;;;2.33;0.88;;;4.80;99.90;;;;;;10233496;28;20038;-53
2021/01/24 14:58:15;;;;;;;5.57;1.20;;;4.80;99.90;;;;;;10232247;28;20490;-53
2021/01/24 15:03:36;;;;;;;3.15;1.42;;;4.90;99.90;;;;;;10234221;28;20040;-53
2021/01/24 15:08:57;;;;;;;3.25;1.25;;;4.80;99.90;;;;;;10239165;28;20071;-53
2021/01/24 15:14:18;;;;;;;3.35;1.27;;;4.70;99.90;;;;;;10239070;28;20137;-53
2021/01/24 15:19:40;;;;;;;4.60;2.00;;;4.60;99.90;;;;;;10241007;28;20536;-53
2021/01/24 15:25:01;;;;;;;3.70;0.60;;;4.50;99.90;;;;;;10240381;28;20040;-53
2021/01/24 15:30:22;;;;;;;4.25;1.48;;;4.40;99.90;;;;;;10241601;28;20055;-53
2021/01/24 15:35:43;;;;;;;4.63;1.42;;;4.30;99.90;;;;;;10236840;28;20696;-53
2021/01/24 15:41:05;;;;;;;3.28;1.02;;;4.30;99.90;;;;;;10232635;28;20470;-54
2021/01/24 15:46:27;;;;;;;3.83;1.30;;;4.30;99.90;;;;;;10232718;28;20043;-53
2021/01/24 15:51:48;;;;;;;4.70;1.55;;;4.20;99.90;;;;;;10237031;28;20043;-53
2021/01/24 15:57:09;;;;;;;2.40;1.20;;;4.00;99.90;;;;;;10233212;28;20062;-53
2021/01/24 16:02:30;;;;;;;7.10;1.48;;;4.00;99.90;;;;;;10219480;28;20122;-53
2021/01/24 16:07:51;;;;;;;4.53;1.35;;;3.90;99.90;;;;;;10221297;28;20039;-53
2021/01/24 16:13:13;;;;;;;4.50;1.55;;;3.80;99.90;;;;;;10234298;28;20542;-53
2021/01/24 16:18:34;;;;;;;3.65;2.10;;;3.70;99.90;;;;;;10239057;28;20790;-53
2021/01/24 16:23:56;;;;;;;6.35;1.95;;;3.80;99.90;;;;;;10231443;28;20542;-53
2021/01/24 16:29:17;;;;;;;2.58;1.30;;;3.70;99.90;;;;;;10233646;28;20055;-53
2021/01/24 16:34:38;;;;;;;5.07;1.50;;;3.60;99.90;;;;;;10218823;28;20554;-53
2021/01/24 16:40:05;;;;;;;4.35;2.00;;;3.50;99.90;;;;;;10233196;28;20041;-53
2021/01/24 16:45:25;;;;;;;5.43;2.00;;;3.50;99.90;;;;;;10232210;28;21669;-54
2021/01/24 16:50:47;;;;;;;3.33;1.25;;;3.60;99.90;;;;;;10231957;28;20043;-53
2021/01/24 16:56:08;;;;;;;3.33;1.45;;;3.60;99.90;;;;;;10232979;28;20050;-53
2021/01/24 17:01:29;;;;;;;4.40;1.40;;;3.50;99.90;;;;;;10229212;28;20050;-53
2021/01/24 17:06:50;;;;;;;3.70;2.00;;;3.40;99.90;;;;;;10231025;28;20589;-53
2021/01/24 17:12:11;;;;;;;4.68;2.35;;;3.30;99.90;;;;;;10235605;28;20035;-53
2021/01/24 17:17:32;;;;;;;6.93;1.92;;;3.30;99.90;;;;;;10233347;28;20043;-53
2021/01/24 17:22:52;;;;;;;4.47;2.28;;;3.20;99.90;;;;;;10231281;28;20050;-53
2021/01/24 17:28:13;;;;;;;4.95;1.98;;;3.30;99.90;;;;;;10230336;28;20055;-53
2021/01/24 17:33:34;;;;;;;3.95;1.63;;;3.20;99.90;;;;;;10228399;28;20134;-53
2021/01/24 17:38:56;;;;;;;4.03;1.75;;;3.30;99.90;;;;;;10226425;28;20039;-53
2021/01/24 17:44:17;;;;;;;4.72;1.55;;;3.30;99.90;;;;;;10225853;28;20047;-53
2021/01/24 17:49:43;;;;;;;5.97;2.20;;;3.20;99.90;;;;;;10230098;28;20110;-53
2021/01/24 17:55:04;;;;;;;7.68;2.45;;;3.20;99.90;;;;;;10230369;28;20069;-53
2021/01/24 18:00:25;;;;;;;3.67;2.33;;;3.10;99.90;;;;;;10231437;28;20051;-53
2021/01/24 18:05:46;;;;;;;4.85;2.13;;;3.20;99.90;;;;;;10220152;28;20086;-53
2021/01/24 18:11:07;;;;;;;6.13;1.88;;;3.10;99.90;;;;;;10230010;28;20134;-53
2021/01/24 18:16:29;;;;;;;7.75;2.83;;;3.00;99.90;;;;;;10206824;28;20059;-53
2021/01/24 18:21:50;;;;;;;4.05;1.95;;;3.00;99.90;;;;;;10230703;28;20067;-53
2021/01/24 18:27:12;;;;;;;4.65;1.40;;;3.10;99.90;;;;;;10230385;28;20043;-53
2021/01/24 18:32:33;;;;;;;6.10;2.22;;;3.10;99.90;;;;;;10229242;28;20042;-53
2021/01/24 18:37:54;;;;;;;8.90;2.42;;;3.00;99.90;;;;;;10229007;28;20119;-53
2021/01/24 18:43:16;;;;;;;5.93;2.20;;;3.00;99.90;;;;;;10230169;28;20377;-53
2021/01/24 18:48:37;;;;;;;5.60;2.22;;;3.00;99.90;;;;;;10234582;28;20043;-53
2021/01/24 18:54:01;;;;;;;5.07;1.40;;;3.00;99.90;;;;;;10234245;28;20043;-53
2021/01/24 18:59:21;;;;;;;8.93;2.75;;;2.90;99.90;;;;;;10231098;28;20348;-53
2021/01/24 19:04:42;;;;;;;5.57;1.92;;;2.80;99.90;;;;;;10237006;28;20047;-53
2021/01/24 19:10:04;;;;;;;13.52;3.47;;;2.90;99.90;;;;;;10235341;28;20124;-53
2021/01/24 19:15:25;;;;;;;8.23;3.05;;;2.90;99.90;;;;;;10234250;28;20073;-53
2021/01/24 19:20:49;;;;;;;5.00;2.05;;;2.90;99.90;;;;;;10235668;28;20471;-53
2021/01/24 19:26:11;;;;;;;8.27;3.55;;;2.90;99.90;;;;;;10230926;28;20074;-53
2021/01/24 19:31:32;;;;;;;5.75;3.17;;;2.80;99.90;;;;;;10232881;28;20043;-53
2021/01/24 19:36:53;;;;;;;6.30;2.13;;;2.80;99.90;;;;;;10234827;28;20047;-53
2021/01/24 19:42:14;;;;;;;7.03;2.55;;;2.70;99.90;;;;;;10236048;28;20051;-53
2021/01/24 19:47:35;;;;;;;6.25;2.72;;;2.70;99.90;;;;;;10234290;28;20062;-53
2021/01/24 19:52:56;;;;;;;8.10;2.15;;;2.80;99.90;;;;;;10236820;28;20450;-53
2021/01/24 19:58:17;;;;;;;8.13;3.00;;;2.70;99.90;;;;;;10229616;28;20707;-53
2021/01/24 20:03:38;;;;;;;6.40;1.95;;;2.60;99.90;;;;;;10238102;28;20039;-53
2021/01/24 20:08:59;;;;;;;4.05;2.55;;;2.60;99.90;;;;;;10234101;28;20046;-53
2021/01/24 20:14:21;;;;;;;7.85;2.83;;;2.70;99.90;;;;;;10233033;28;20418;-53
2021/01/24 20:19:44;;;;;;;8.80;3.25;;;2.60;99.90;;;;;;10222428;28;20102;-53
2021/01/24 20:25:05;;;;;;;3.17;1.85;;;2.70;99.90;;;;;;10224742;28;20038;-53
2021/01/24 20:30:27;;;;;;;8.75;3.15;;;2.70;99.90;;;;;;10234354;28;20050;-53
2021/01/24 20:35:48;;;;;;;5.20;2.10;;;2.70;99.90;;;;;;10221429;28;20581;-53
2021/01/24 20:41:09;;;;;;;6.95;2.78;;;2.70;99.90;;;;;;10231875;28;20039;-53
2021/01/24 20:46:31;;;;;;;5.88;2.58;;;2.80;99.90;;;;;;10220884;28;20043;-52
2021/01/24 20:51:52;;;;;;;9.63;2.25;;;2.70;99.90;;;;;;10228560;28;20086;-53
2021/01/24 20:57:13;;;;;;;4.88;1.83;;;2.60;99.90;;;;;;10223463;28;20072;-54
2021/01/24 21:02:34;;;;;;;8.05;1.85;;;2.50;99.90;;;;;;10221198;28;20108;-53
2021/01/24 21:07:55;;;;;;;10.20;2.70;;;2.40;99.90;;;;;;10226980;28;20054;-53
2021/01/24 21:13:16;;;;;;;15.02;2.85;;;2.40;99.90;;;;;;10225623;28;20035;-53
2021/01/24 21:18:37;;;;;;;10.65;2.00;;;2.40;99.90;;;;;;10217025;28;20121;-53
2021/01/24 21:23:58;;;;;;;8.82;2.03;;;2.50;99.90;;;;;;10227936;28;20122;-53
2021/01/24 21:29:19;;;;;;;4.15;1.77;;;2.50;99.90;;;;;;10231009;28;20147;-53
2021/01/24 21:34:40;;;;;;;10.60;1.90;;;2.40;99.90;;;;;;10228955;28;20050;-53
2021/01/24 21:40:01;;;;;;;6.72;2.42;;;2.40;99.90;;;;;;10232132;28;20059;-53
2021/01/24 21:45:22;;;;;;;6.80;1.88;;;2.30;99.90;;;;;;10230199;28;20114;-53
2021/01/24 21:50:43;;;;;;;6.22;2.80;;;2.40;99.90;;;;;;10227429;28;20054;-53
2021/01/24 21:56:05;;;;;;;10.95;1.77;;;2.40;99.90;;;;;;10234022;28;20383;-53
2021/01/24 22:01:26;;;;;;;7.65;2.63;;;2.40;99.90;;;;;;10233175;28;20041;-53
2021/01/24 22:06:47;;;;;;;4.68;2.10;;;2.50;99.90;;;;;;10232546;28;20035;-53
2021/01/24 22:12:09;;;;;;;11.38;2.88;;;2.50;99.90;;;;;;10234392;28;20127;-53
2021/01/24 22:17:30;;;;;;;3.85;1.42;;;2.50;99.90;;;;;;10221665;28;20066;-53
2021/01/24 22:22:50;;;;;;;6.78;2.42;;;2.50;99.90;;;;;;10240887;28;20272;-53
2021/01/24 22:28:11;;;;;;;14.32;2.60;;;2.50;99.90;;;;;;10234892;28;20501;-53
2021/01/24 22:33:32;;;;;;;6.55;2.60;;;2.30;99.90;;;;;;10235827;28;20074;-53
2021/01/24 22:38:53;;;;;;;12.90;2.50;;;2.30;99.90;;;;;;10237139;28;20039;-53
2021/01/24 22:44:14;;;;;;;11.32;3.05;;;2.20;99.90;;;;;;10237779;28;20049;-53
2021/01/24 22:49:35;;;;;;;4.22;1.98;;;2.00;99.90;;;;;;10235910;28;20067;-53
2021/01/24 22:54:56;;;;;;;6.82;2.45;;;2.00;99.90;;;;;;10242067;28;20403;-53
2021/01/24 23:00:18;;;;;;;4.18;1.30;;;1.90;99.90;;;;;;10235247;28;20157;-53
2021/01/24 23:05:39;;;;;;;7.70;3.08;;;2.00;99.90;;;;;;10239687;28;20032;-53
2021/01/24 23:11:00;;;;;;;3.65;1.77;;;2.00;99.90;;;;;;10220695;28;20039;-53
2021/01/24 23:16:21;;;;;;;2.45;1.20;;;1.90;99.90;;;;;;10232709;28;20046;-53
2021/01/24 23:21:43;;;;;;;6.30;2.15;;;2.00;99.90;;;;;;10232209;28;20164;-53
2021/01/24 23:27:06;;;;;;;4.50;1.35;;;2.00;99.90;;;;;;10232245;28;20066;-53
2021/01/24 23:32:27;;;;;;;5.53;2.88;;;2.00;99.90;;;;;;10240972;28;20031;-53
2021/01/24 23:37:48;;;;;;;4.03;2.15;;;1.90;99.90;;;;;;10237609;28;20141;-53
2021/01/24 23:43:09;;;;;;;5.50;1.73;;;1.90;99.90;;;;;;10240443;28;20114;-53
2021/01/24 23:48:30;;;;;;;5.32;1.55;;;1.70;99.90;;;;;;10229753;28;20062;-53
2021/01/24 23:53:51;;;;;;;6.63;1.92;;;1.80;99.90;;;;;;10237937;28;20031;-53
2021/01/24 23:59:12;;;;;;;5.45;2.10;;;1.80;99.90;;;;;;10242335;28;20372;-54
